Time;durP1;ratioP1;P1;durP2;ratioP2;P2;SDS_P1;SDS_P2;PMS_P1;PMS_P2;Temp;Humidity;BMP_temperature;BMP_pressure;BME280_temperature;BME280_humidity;BME280_pressure;Samples;Min_cycle;Max_cycle;Signal;HPM_P1;HPM_P2
2021/12/01 00:02:02;;;;;;;1.73;1.20;;;;;;;6.52;70.65;98940.38;10389133;28;20512;-66
2021/12/01 00:07:06;;;;;;;1.70;1.27;;;;;;;6.52;71.00;98940.38;10389538;28;20125;-66
2021/12/01 00:12:08;;;;;;;2.30;1.30;;;;;;;6.40;71.49;98938.50;10388118;28;20185;-65
2021/12/01 00:17:12;;;;;;;1.73;1.30;;;;;;;6.44;71.30;98926.16;10387421;28;20057;-65
2021/12/01 00:22:14;;;;;;;3.10;1.50;;;;;;;6.46;71.49;98930.34;10387219;28;20477;-65
2021/12/01 00:27:15;;;;;;;1.95;1.50;;;;;;;6.43;71.65;98924.50;10388505;28;20128;-66
2021/12/01 00:32:18;;;;;;;3.72;1.70;;;;;;;6.42;71.76;98920.22;10388153;28;20049;-65
2021/12/01 00:37:20;;;;;;;2.50;1.70;;;;;;;6.37;72.10;98901.50;10387587;28;20048;-66
2021/12/01 00:42:22;;;;;;;2.80;1.90;;;;;;;6.43;71.95;98896.75;10388384;28;20045;-65
2021/12/01 00:47:32;;;;;;;4.75;1.83;;;;;;;6.40;72.05;98891.75;10388172;28;20045;-65
2021/12/01 00:52:33;;;;;;;2.72;1.70;;;;;;;6.46;71.86;98895.72;10387454;28;20045;-66
2021/12/01 00:57:36;;;;;;;4.22;2.67;;;;;;;6.50;71.81;98892.88;10386113;28;20053;-66
2021/12/01 01:02:37;;;;;;;6.35;4.35;;;;;;;6.56;71.59;98882.13;10385043;28;20414;-65
2021/12/01 01:07:40;;;;;;;6.45;3.85;;;;;;;6.57;71.47;98877.75;10387174;28;20096;-65
2021/12/01 01:18:05;;;;;;;5.27;3.10;;;;;;;6.47;71.22;98861.88;10385807;28;20140;-66
2021/12/01 01:23:07;;;;;;;4.28;2.47;;;;;;;6.57;71.20;98851.78;10385869;28;20707;-66
2021/12/01 01:28:09;;;;;;;5.43;3.05;;;;;;;6.61;70.86;98841.13;10387069;28;20081;-66
2021/12/01 01:33:11;;;;;;;3.53;2.30;;;;;;;6.71;70.67;98818.84;10385987;28;20441;-66
2021/12/01 01:38:14;;;;;;;4.38;2.47;;;;;;;6.70;70.47;98805.94;10385338;28;20197;-66
2021/12/01 01:43:16;;;;;;;3.97;2.40;;;;;;;6.62;70.44;98795.19;10385980;28;20465;-66
2021/12/01 01:48:28;;;;;;;5.28;2.72;;;;;;;6.71;70.02;98786.81;10384064;28;20045;-66
2021/12/01 01:53:34;;;;;;;3.92;1.95;;;;;;;6.59;69.75;98785.00;10384519;28;20412;-66
2021/12/01 01:58:36;;;;;;;2.95;1.90;;;;;;;6.65;69.88;98782.00;10384223;28;20425;-66
2021/12/01 02:03:40;;;;;;;2.97;1.73;;;;;;;6.60;69.66;98758.91;10384783;28;20057;-66
2021/12/01 02:08:42;;;;;;;3.13;1.88;;;;;;;6.61;69.61;98754.56;10384524;28;20049;-66
2021/12/01 02:13:45;;;;;;;2.63;1.30;;;;;;;6.61;69.46;98736.38;10385167;28;20130;-65
2021/12/01 02:18:47;;;;;;;2.13;1.40;;;;;;;6.67;69.30;98725.59;10383462;28;20061;-66
2021/12/01 02:23:50;;;;;;;2.78;1.58;;;;;;;6.61;69.33;98724.22;10384570;28;20049;-65
2021/12/01 02:28:54;;;;;;;2.58;1.40;;;;;;;6.79;68.81;98720.47;10383939;28;20053;-66
2021/12/01 02:33:56;;;;;;;2.40;1.40;;;;;;;6.79;68.68;98717.03;10378491;28;20053;-66
2021/12/01 02:38:59;;;;;;;2.90;1.70;;;;;;;6.68;68.87;98703.88;10382487;28;20139;-66
2021/12/01 02:44:04;;;;;;;3.30;1.75;;;;;;;6.78;68.43;98686.75;10383413;28;20080;-66
2021/12/01 02:49:06;;;;;;;2.53;1.40;;;;;;;6.84;68.41;98686.38;10384156;28;20046;-66
2021/12/01 02:54:08;;;;;;;2.78;1.60;;;;;;;6.87;68.18;98668.00;10382439;28;20049;-66
2021/12/01 02:59:10;;;;;;;1.92;1.40;;;;;;;6.82;68.29;98652.69;10382816;28;20049;-66
2021/12/01 03:04:14;;;;;;;3.28;1.80;;;;;;;6.80;67.87;98646.75;10387153;28;20148;-66
2021/12/01 03:09:16;;;;;;;2.42;1.58;;;;;;;6.77;67.91;98622.75;10388904;28;20496;-65
2021/12/01 03:14:20;;;;;;;3.15;1.70;;;;;;;6.73;67.43;98624.72;10390111;28;20710;-66
2021/12/01 03:19:21;;;;;;;3.28;1.60;;;;;;;6.59;67.41;98592.78;10392355;28;20059;-65
2021/12/01 03:24:23;;;;;;;2.35;1.48;;;;;;;6.57;67.57;98581.66;10399924;28;20053;-66
2021/12/01 03:29:25;;;;;;;7.00;2.03;;;;;;;6.61;67.37;98572.72;10397680;28;20041;-66
2021/12/01 03:34:27;;;;;;;2.90;1.80;;;;;;;6.65;67.02;98548.22;10399143;28;20061;-66
2021/12/01 03:39:29;;;;;;;3.88;1.90;;;;;;;6.69;66.91;98547.06;10398053;28;20460;-65
2021/12/01 03:44:32;;;;;;;3.25;2.10;;;;;;;6.62;66.80;98525.84;10398835;28;20041;-65
2021/12/01 03:49:33;;;;;;;3.75;2.20;;;;;;;6.63;66.63;98506.75;10398246;28;20410;-66
2021/12/01 03:54:35;;;;;;;4.88;2.33;;;;;;;6.45;67.02;98492.34;10398729;28;20061;-66
2021/12/01 03:59:37;;;;;;;3.78;2.17;;;;;;;6.65;66.72;98471.13;10414059;28;20055;-65
2021/12/01 04:04:39;;;;;;;4.45;2.38;;;;;;;6.54;66.69;98472.75;10391816;28;20094;-66
2021/12/01 04:09:43;;;;;;;4.28;2.13;;;;;;;6.71;66.12;98465.50;10390787;28;20049;-66
2021/12/01 04:14:45;;;;;;;4.97;2.20;;;;;;;6.62;66.29;98457.47;10390836;28;20558;-66
2021/12/01 04:19:47;;;;;;;3.60;2.10;;;;;;;6.61;66.07;98448.03;10390326;28;20548;-65
2021/12/01 04:24:49;;;;;;;3.38;1.85;;;;;;;6.48;65.79;98442.81;10388923;28;20050;-65
2021/12/01 04:29:50;;;;;;;3.10;1.77;;;;;;;6.62;65.60;98454.88;10389954;28;20049;-66
2021/12/01 04:34:52;;;;;;;3.60;1.73;;;;;;;6.64;65.23;98458.22;10388483;28;20053;-66
2021/12/01 04:39:54;;;;;;;2.40;1.60;;;;;;;6.68;65.20;98447.50;10390075;28;20417;-66
2021/12/01 04:44:56;;;;;;;2.50;1.55;;;;;;;6.80;64.93;98457.06;10389708;28;20100;-66
2021/12/01 04:49:57;;;;;;;2.55;1.52;;;;;;;6.84;64.70;98461.13;10389444;28;20048;-65
2021/12/01 04:54:59;;;;;;;2.78;1.50;;;;;;;6.86;64.64;98459.25;10390058;28;20640;-66
2021/12/01 05:00:01;;;;;;;2.60;1.63;;;;;;;6.89;64.63;98448.66;10389354;28;20046;-66
2021/12/01 05:05:03;;;;;;;2.60;1.50;;;;;;;6.89;64.49;98447.84;10388790;28;20053;-65
2021/12/01 05:10:06;;;;;;;1.95;1.30;;;;;;;6.84;64.45;98436.91;10388741;28;20049;-65
2021/12/01 05:15:08;;;;;;;2.78;1.50;;;;;;;6.75;64.46;98433.19;10388376;28;20504;-65
2021/12/01 05:20:11;;;;;;;5.20;2.90;;;;;;;6.83;64.27;98406.69;10388447;28;20057;-65
2021/12/01 05:25:13;;;;;;;5.63;2.97;;;;;;;6.87;64.28;98411.56;10388816;28;20049;-65
2021/12/01 05:30:15;;;;;;;2.05;1.30;;;;;;;6.84;64.10;98413.50;10386837;28;20052;-66
2021/12/01 05:35:17;;;;;;;2.38;1.35;;;;;;;6.65;64.33;98407.94;10387289;28;20839;-67
2021/12/01 05:40:18;;;;;;;3.05;1.30;;;;;;;6.75;64.34;98378.63;10386009;28;20405;-66
2021/12/01 05:45:20;;;;;;;2.13;1.20;;;;;;;6.91;64.30;98363.63;10386872;28;20043;-67
2021/12/01 05:50:22;;;;;;;3.75;1.75;;;;;;;6.88;64.14;98344.81;10388099;28;20072;-67
2021/12/01 05:55:24;;;;;;;1.92;1.40;;;;;;;6.93;64.06;98340.13;10387755;28;20137;-67
2021/12/01 06:00:26;;;;;;;3.72;1.25;;;;;;;6.81;64.31;98317.59;10386323;28;20049;-68
2021/12/01 06:05:29;;;;;;;3.17;1.60;;;;;;;6.85;64.24;98306.06;10387486;28;20042;-67
2021/12/01 06:10:33;;;;;;;1.95;1.40;;;;;;;6.73;64.46;98301.72;10385785;28;20049;-67
2021/12/01 06:15:35;;;;;;;3.45;1.30;;;;;;;6.67;64.55;98291.75;10384791;28;20494;-67
2021/12/01 06:20:38;;;;;;;1.38;1.10;;;;;;;6.78;64.44;98284.03;10382082;28;20418;-67
2021/12/01 06:25:40;;;;;;;3.65;2.38;;;;;;;6.65;64.35;98267.66;10383090;28;20059;-66
2021/12/01 06:30:42;;;;;;;3.60;1.80;;;;;;;6.64;64.66;98266.00;10386115;28;20111;-66
2021/12/01 06:35:48;;;;;;;2.95;1.60;;;;;;;6.77;64.30;98249.44;10385040;28;20053;-65
2021/12/01 06:40:50;;;;;;;3.28;1.70;;;;;;;6.72;64.47;98254.13;10380472;28;20053;-66
2021/12/01 06:45:52;;;;;;;3.50;1.60;;;;;;;6.77;64.38;98238.22;10383876;28;20236;-65
2021/12/01 06:50:54;;;;;;;3.33;2.03;;;;;;;6.88;64.04;98228.72;10384475;28;20049;-65
2021/12/01 06:55:56;;;;;;;2.72;1.60;;;;;;;6.87;64.02;98216.66;10382498;28;20123;-66
2021/12/01 07:00:57;;;;;;;2.53;1.50;;;;;;;6.86;64.12;98214.16;10378428;28;20050;-66
2021/12/01 07:06:00;;;;;;;3.85;1.58;;;;;;;6.76;64.35;98198.41;10385444;28;20053;-66
2021/12/01 07:11:02;;;;;;;4.22;1.40;;;;;;;6.89;64.07;98187.97;10385021;28;20045;-66
2021/12/01 07:16:05;;;;;;;2.45;1.42;;;;;;;6.89;64.25;98177.56;10384144;28;20057;-65
2021/12/01 07:21:07;;;;;;;2.63;1.33;;;;;;;6.84;64.09;98164.06;10383778;28;20480;-65
2021/12/01 07:26:08;;;;;;;2.47;1.30;;;;;;;6.87;63.86;98167.31;10383852;28;20052;-66
2021/12/01 07:31:10;;;;;;;2.25;1.40;;;;;;;6.75;64.21;98154.38;10384453;28;20130;-65
2021/12/01 07:36:13;;;;;;;1.67;1.30;;;;;;;6.79;64.03;98145.41;10382985;28;20417;-66
2021/12/01 07:41:15;;;;;;;1.45;1.05;;;;;;;6.91;63.81;98141.91;10384337;28;20050;-65
2021/12/01 07:46:17;;;;;;;2.92;1.27;;;;;;;6.68;64.01;98140.16;10384170;28;20444;-66
2021/12/01 07:51:19;;;;;;;2.65;1.10;;;;;;;6.81;63.96;98131.38;10383940;28;20399;-65
2021/12/01 07:56:21;;;;;;;1.58;1.20;;;;;;;6.83;63.90;98126.06;10384312;28;20068;-65
2021/12/01 08:01:23;;;;;;;1.77;1.10;;;;;;;6.82;63.86;98114.00;10384270;28;20056;-65
2021/12/01 08:06:26;;;;;;;2.65;1.25;;;;;;;6.88;63.95;98105.75;10387036;28;20057;-65
2021/12/01 08:11:28;;;;;;;2.58;1.40;;;;;;;6.85;63.87;98086.03;10405656;28;20056;-65
2021/12/01 08:16:30;;;;;;;3.45;2.15;;;;;;;6.91;63.93;98053.56;10390956;28;20057;-66
2021/12/01 08:21:33;;;;;;;1.92;1.23;;;;;;;6.79;64.02;98080.47;10390368;28;20501;-66
2021/12/01 08:26:43;;;;;;;2.00;1.40;;;;;;;6.81;64.06;98074.22;10391239;28;20053;-65
2021/12/01 08:31:45;;;;;;;3.90;1.20;;;;;;;6.80;64.18;98058.72;10390251;28;20156;-66
2021/12/01 08:36:47;;;;;;;2.15;1.10;;;;;;;6.83;64.09;98054.16;10390452;28;20053;-65
2021/12/01 08:41:48;;;;;;;2.70;1.33;;;;;;;6.67;64.57;98039.81;10389158;28;20057;-65
2021/12/01 08:46:50;;;;;;;1.30;0.90;;;;;;;6.83;64.07;98025.56;10389813;28;20512;-66
2021/12/01 08:51:52;;;;;;;1.70;1.08;;;;;;;6.74;64.02;98023.63;10388723;28;20409;-66
2021/12/01 08:56:53;;;;;;;1.60;1.10;;;;;;;6.80;63.75;98006.75;10389624;28;20533;-66
2021/12/01 09:01:55;;;;;;;1.27;1.15;;;;;;;6.85;63.63;98015.03;10388868;28;20049;-66
2021/12/01 09:06:57;;;;;;;2.58;1.00;;;;;;;6.78;63.66;97996.50;10389148;28;20061;-66
2021/12/01 09:11:59;;;;;;;1.08;0.98;;;;;;;6.86;63.37;97990.72;10388602;28;20049;-66
2021/12/01 09:17:01;;;;;;;1.13;1.00;;;;;;;6.85;63.21;97989.06;10388365;28;20049;-66
2021/12/01 09:22:04;;;;;;;1.23;0.95;;;;;;;7.00;62.64;97973.13;10373815;28;20049;-67
2021/12/01 09:27:06;;;;;;;1.77;1.40;;;;;;;7.12;62.24;97958.38;10380042;28;20223;-67
2021/12/01 09:32:08;;;;;;;1.30;0.85;;;;;;;7.14;62.37;97944.31;10386886;28;20075;-69
2021/12/01 09:37:11;;;;;;;1.10;1.00;;;;;;;7.18;61.94;97952.72;10384849;28;20117;-70
2021/12/01 09:42:12;;;;;;;1.15;0.95;;;;;;;7.21;62.21;97949.88;10387149;28;20050;-71
2021/12/01 09:47:18;;;;;;;1.15;0.93;;;;;;;7.22;62.19;97922.94;10385429;28;20137;-70
2021/12/01 09:52:19;;;;;;;1.00;0.90;;;;;;;7.43;61.94;97917.81;10387227;28;20409;-71
2021/12/01 09:57:21;;;;;;;3.42;1.98;;;;;;;7.52;61.83;97907.53;10384977;28;20049;-70
2021/12/01 10:02:25;;;;;;;1.80;1.42;;;;;;;7.71;61.64;97901.69;10387278;28;20053;-70
2021/12/01 10:07:34;;;;;;;1.00;0.90;;;;;;;7.73;61.03;97884.97;10386818;28;20058;-70
2021/12/01 10:12:47;;;;;;;1.83;0.95;;;;;;;7.67;60.94;97869.88;10385476;28;20063;-70
2021/12/01 10:18:09;;;;;;;0.98;0.80;;;;;;;7.80;61.04;97875.75;10386001;28;20422;-70
2021/12/01 10:23:16;;;;;;;1.25;1.00;;;;;;;7.77;61.58;97852.56;10385713;28;20057;-69
2021/12/01 10:28:43;;;;;;;0.98;0.73;;;;;;;7.81;61.13;97840.16;10385847;28;20520;-68
2021/12/01 10:33:44;;;;;;;1.70;1.20;;;;;;;7.99;61.39;97812.59;10386352;28;20050;-69
2021/12/01 10:38:46;;;;;;;1.33;1.00;;;;;;;7.95;61.40;97800.81;10385994;28;20133;-70
2021/12/01 10:43:48;;;;;;;2.67;1.10;;;;;;;8.11;60.77;97795.16;10385536;28;20058;-70
2021/12/01 10:49:03;;;;;;;2.30;1.10;;;;;;;8.25;64.18;97781.81;10384139;28;20041;-71
2021/12/01 10:54:13;;;;;;;1.20;1.02;;;;;;;8.91;59.42;97773.47;10383144;28;20132;-72
2021/12/01 10:59:16;;;;;;;1.27;0.83;;;;;;;8.41;60.32;97761.34;10384940;28;20139;-72
2021/12/01 11:04:42;;;;;;;1.33;0.90;;;;;;;8.49;59.91;97746.69;10384601;28;20067;-71
2021/12/01 11:09:43;;;;;;;1.23;0.80;;;;;;;8.54;60.47;97736.72;10383611;28;20413;-72
2021/12/01 11:14:45;;;;;;;0.93;0.70;;;;;;;8.60;60.25;97719.72;10385393;28;20156;-71
2021/12/01 11:19:47;;;;;;;1.75;0.88;;;;;;;8.73;60.03;97712.47;10384810;28;20410;-72
2021/12/01 11:24:48;;;;;;;0.65;0.65;;;;;;;8.61;60.41;97723.97;10385548;28;20054;-72
2021/12/01 11:29:50;;;;;;;0.68;0.60;;;;;;;8.65;60.20;97697.53;10384892;28;20524;-72
2021/12/01 11:34:52;;;;;;;0.93;0.60;;;;;;;8.74;60.17;97699.34;10384466;28;20498;-72
2021/12/01 11:39:56;;;;;;;0.70;0.68;;;;;;;9.01;59.56;97680.44;10385910;28;21098;-72
2021/12/01 11:44:59;;;;;;;2.58;1.60;;;;;;;9.00;59.60;97691.00;10391940;28;20053;-72
2021/12/01 11:50:04;;;;;;;2.75;1.40;;;;;;;9.17;59.35;97683.34;10392686;28;20140;-72
2021/12/01 11:55:05;;;;;;;2.47;1.10;;;;;;;9.22;59.23;97668.06;10393303;28;20380;-72
2021/12/01 12:00:09;;;;;;;2.80;1.75;;;;;;;9.33;59.00;97654.91;10392152;28;20042;-72
2021/12/01 12:05:16;;;;;;;9.35;7.50;;;;;;;9.21;58.74;97645.59;10391403;28;20123;-72
2021/12/01 12:10:20;;;;;;;6.93;4.22;;;;;;;9.17;59.26;97627.75;10392121;28;20140;-72
2021/12/01 12:15:51;;;;;;;2.47;1.70;;;;;;;8.98;59.20;97614.69;10390816;28;20175;-72
2021/12/01 12:21:17;;;;;;;2.97;1.35;;;;;;;9.00;59.66;97611.00;10392711;28;20482;-72
2021/12/01 12:26:48;;;;;;;1.35;0.98;;;;;;;9.01;59.54;97602.22;10392193;28;20491;-71
2021/12/01 12:31:52;;;;;;;0.88;0.80;;;;;;;8.98;60.16;97604.28;10391313;28;20049;-72
2021/12/01 12:36:57;;;;;;;1.23;1.10;;;;;;;9.04;59.93;97599.34;10391846;28;20049;-72
2021/12/01 12:42:04;;;;;;;1.10;0.85;;;;;;;8.88;60.57;97591.25;10391318;28;20046;-72
2021/12/01 12:47:13;;;;;;;2.00;1.00;;;;;;;8.79;60.53;97572.03;10391471;28;20260;-72
2021/12/01 12:52:24;;;;;;;0.88;0.68;;;;;;;8.90;60.19;97552.00;10389734;28;20064;-72
2021/12/01 12:57:46;;;;;;;;;;;;;;;8.81;60.53;97564.91;10390380;28;20474;-72
2021/12/01 13:02:49;;;;;;;0.97;0.60;;;;;;;9.33;59.95;97536.69;10390329;28;19924;-71
2021/12/01 13:07:55;;;;;;;0.80;0.80;;;;;;;9.13;60.25;97535.94;10391014;28;20046;-71
2021/12/01 13:12:57;;;;;;;3.85;2.50;;;;;;;9.03;60.66;97534.31;10389745;28;20092;-71
2021/12/01 13:18:00;;;;;;;3.80;2.42;;;;;;;9.07;60.49;97520.84;10390055;28;20144;-71
2021/12/01 13:23:21;;;;;;;2.70;1.60;;;;;;;8.95;60.56;97510.72;10389358;28;20057;-71
2021/12/01 13:28:36;;;;;;;1.90;0.80;;;;;;;9.04;60.62;97515.06;10389940;28;20056;-71
2021/12/01 13:34:04;;;;;;;0.60;0.60;;;;;;;9.03;60.66;97508.22;10389324;28;20049;-71
2021/12/01 13:39:20;;;;;;;0.93;0.63;;;;;;;8.97;61.06;97506.19;10388757;28;20561;-71
2021/12/01 13:44:25;;;;;;;0.63;0.60;;;;;;;8.92;61.54;97509.22;10388102;28;20053;-70
2021/12/01 13:49:37;;;;;;;0.57;0.57;;;;;;;8.97;61.71;97506.19;10387334;28;20142;-71
2021/12/01 13:54:38;;;;;;;2.83;0.70;;;;;;;8.79;63.06;97512.09;10388967;28;20050;-71
2021/12/01 13:59:46;;;;;;;2.78;0.93;;;;;;;8.65;64.31;97520.34;10387622;28;20144;-71
2021/12/01 14:04:54;;;;;;;3.25;0.80;;;;;;;8.53;65.08;97536.25;10387322;28;20156;-72
2021/12/01 14:10:05;;;;;;;1.45;0.70;;;;;;;8.35;66.30;97520.47;10387331;28;20447;-70
2021/12/01 14:15:08;;;;;;;3.03;0.80;;;;;;;8.27;66.54;97515.13;10388018;28;20201;-70
2021/12/01 14:20:30;;;;;;;1.20;0.70;;;;;;;8.20;66.98;97528.84;10387698;28;20488;-70
2021/12/01 14:25:33;;;;;;;1.55;1.08;;;;;;;8.22;67.20;97529.53;10386761;28;20148;-70
2021/12/01 14:30:42;;;;;;;4.68;2.03;;;;;;;8.32;67.67;97546.81;10385576;28;20055;-71
2021/12/01 14:36:03;;;;;;;4.05;2.50;;;;;;;8.15;68.24;97550.06;10386787;28;20389;-70
2021/12/01 14:41:09;;;;;;;2.40;1.60;;;;;;;8.12;68.18;97557.31;10386825;28;20049;-71
2021/12/01 14:46:15;;;;;;;1.17;0.90;;;;;;;8.01;68.44;97585.09;10387161;28;20172;-70
2021/12/01 14:51:17;;;;;;;1.38;0.90;;;;;;;8.02;68.16;97591.91;10385706;28;20049;-70
2021/12/01 14:56:19;;;;;;;3.42;1.10;;;;;;;7.79;68.86;97615.66;10387585;28;20216;-71
2021/12/01 15:01:20;;;;;;;1.55;1.00;;;;;;;7.83;68.53;97625.66;10401432;28;20049;-71
2021/12/01 15:06:28;;;;;;;1.33;0.90;;;;;;;7.77;68.56;97630.59;10386297;28;20064;-71
2021/12/01 15:11:41;;;;;;;2.58;1.30;;;;;;;7.80;68.41;97633.75;10385629;28;20438;-71
2021/12/01 15:16:43;;;;;;;1.33;1.00;;;;;;;7.66;68.75;97644.50;10389144;28;20057;-71
2021/12/01 15:21:50;;;;;;;1.92;0.85;;;;;;;7.82;68.63;97649.22;10393670;28;20076;-71
2021/12/01 15:26:55;;;;;;;2.70;1.10;;;;;;;7.78;68.37;97648.66;10394337;28;20399;-71
2021/12/01 15:32:00;;;;;;;1.73;1.20;;;;;;;7.79;68.22;97645.09;10394077;28;20578;-71
2021/12/01 15:37:02;;;;;;;3.08;1.55;;;;;;;7.66;68.25;97643.66;10393167;28;20053;-71
2021/12/01 15:42:04;;;;;;;2.72;1.42;;;;;;;7.50;67.48;97654.53;10393366;28;20133;-71
2021/12/01 15:47:06;;;;;;;3.75;1.60;;;;;;;7.34;67.57;97658.53;10393527;28;20456;-71
2021/12/01 15:52:08;;;;;;;3.28;1.40;;;;;;;7.27;67.10;97662.56;10392903;28;20045;-71
2021/12/01 15:57:09;;;;;;;3.67;1.40;;;;;;;7.09;67.18;97664.91;10393257;28;20131;-72
2021/12/01 16:02:12;;;;;;;4.20;1.90;;;;;;;7.06;66.99;97665.19;10391101;28;20408;-71
2021/12/01 16:07:14;;;;;;;3.72;1.80;;;;;;;6.98;67.24;97670.13;10392230;28;20153;-72
2021/12/01 16:12:16;;;;;;;2.88;1.48;;;;;;;6.83;67.85;97676.59;10391879;28;20661;-71
2021/12/01 16:17:18;;;;;;;4.00;1.50;;;;;;;6.85;68.08;97690.28;10391798;28;20404;-70
2021/12/01 16:22:20;;;;;;;4.38;1.98;;;;;;;6.99;67.97;97688.22;10390757;28;20140;-71
2021/12/01 16:27:22;;;;;;;3.97;1.50;;;;;;;6.94;68.52;97699.91;10391227;28;20052;-72
2021/12/01 16:32:24;;;;;;;4.00;1.30;;;;;;;7.01;68.43;97716.69;10391622;28;20064;-71
2021/12/01 16:37:25;;;;;;;3.00;1.50;;;;;;;7.04;68.55;97712.06;10391104;28;20439;-71
2021/12/01 16:42:28;;;;;;;2.30;1.50;;;;;;;7.07;68.70;97713.59;10392312;28;20048;-71
2021/12/01 16:47:29;;;;;;;5.57;2.03;;;;;;;7.04;68.61;97713.84;10390365;28;20458;-70
2021/12/01 16:52:31;;;;;;;5.75;1.80;;;;;;;7.15;68.48;97711.19;10390580;28;20053;-71
2021/12/01 16:57:34;;;;;;;3.75;2.03;;;;;;;7.21;68.05;97715.91;10389897;28;20479;-66
2021/12/01 17:02:39;;;;;;;3.75;2.20;;;;;;;7.01;67.91;97719.28;10390436;28;20413;-67
2021/12/01 17:12:49;;;;;;;3.55;1.85;;;;;;;6.71;68.31;97745.09;10389604;28;20056;-66
2021/12/01 17:17:51;;;;;;;4.13;1.77;;;;;;;6.72;68.28;97749.34;10388984;28;20058;-66
2021/12/01 17:22:53;;;;;;;4.00;1.88;;;;;;;6.73;68.02;97748.41;10385442;28;20050;-66
2021/12/01 17:27:55;;;;;;;3.03;1.40;;;;;;;6.67;68.16;97751.47;10386828;28;20053;-66
2021/12/01 17:32:58;;;;;;;4.35;1.67;;;;;;;6.70;67.96;97756.44;10382445;28;20592;-66
2021/12/01 17:38:01;;;;;;;4.68;1.80;;;;;;;6.69;68.14;97765.19;10385269;28;20572;-66
2021/12/01 17:43:03;;;;;;;3.90;1.83;;;;;;;6.69;68.05;97772.97;10388035;28;20041;-66
2021/12/01 17:48:05;;;;;;;6.28;1.90;;;;;;;6.67;68.27;97774.88;10386839;28;20420;-66
2021/12/01 17:53:07;;;;;;;3.97;1.67;;;;;;;6.73;68.10;97776.97;10385981;28;20103;-66
2021/12/01 17:58:09;;;;;;;6.10;1.50;;;;;;;6.69;68.04;97783.34;10384141;28;20616;-67
2021/12/01 18:03:11;;;;;;;4.63;2.30;;;;;;;6.65;68.01;97787.16;10386298;28;20560;-67
2021/12/01 18:08:13;;;;;;;3.53;1.90;;;;;;;6.68;68.08;97790.31;10385629;28;20057;-67
2021/12/01 18:13:15;;;;;;;3.83;1.80;;;;;;;6.71;68.09;97804.84;10385561;28;20133;-67
2021/12/01 18:18:17;;;;;;;4.43;1.80;;;;;;;6.60;68.39;97803.06;10384734;28;20084;-67
2021/12/01 18:23:21;;;;;;;6.15;2.30;;;;;;;6.58;68.63;97815.34;10385511;28;20464;-67
2021/12/01 18:28:22;;;;;;;6.03;2.47;;;;;;;6.58;68.51;97828.34;10385834;28;20057;-67
2021/12/01 18:33:25;;;;;;;4.40;2.30;;;;;;;6.50;68.62;97837.66;10384737;28;20064;-67
2021/12/01 18:38:27;;;;;;;5.13;2.05;;;;;;;6.40;68.53;97832.34;10384867;28;20132;-67
2021/12/01 18:43:28;;;;;;;4.38;1.55;;;;;;;6.17;68.69;97836.63;10384512;28;20057;-67
2021/12/01 18:48:30;;;;;;;2.35;1.40;;;;;;;6.00;68.88;97865.59;10384897;28;20046;-68
2021/12/01 18:53:38;;;;;;;3.60;2.00;;;;;;;5.91;68.97;97855.09;10382651;28;20049;-68
2021/12/01 18:58:40;;;;;;;2.85;1.65;;;;;;;6.00;69.12;97849.22;10383895;28;20144;-67
2021/12/01 19:03:42;;;;;;;2.50;1.30;;;;;;;6.09;68.73;97864.09;10381964;28;20080;-67
2021/12/01 19:08:45;;;;;;;3.28;1.40;;;;;;;6.09;68.39;97875.31;10385013;28;20059;-67
2021/12/01 19:13:50;;;;;;;5.10;1.63;;;;;;;6.01;68.28;97871.63;10384602;28;20061;-67
2021/12/01 19:18:51;;;;;;;3.95;1.60;;;;;;;6.01;67.75;97875.06;10384306;28;20054;-68
2021/12/01 19:23:53;;;;;;;10.65;5.47;;;;;;;6.03;67.57;97880.13;10374769;28;20053;-68
2021/12/01 19:28:55;;;;;;;6.57;3.00;;;;;;;5.90;67.33;97887.97;10380416;28;20228;-67
2021/12/01 19:34:00;;;;;;;4.53;1.77;;;;;;;5.76;67.32;97889.94;10377878;28;20049;-68
2021/12/01 19:39:03;;;;;;;5.18;2.50;;;;;;;5.63;67.58;97892.59;10382591;28;20129;-67
2021/12/01 19:44:11;;;;;;;4.10;2.00;;;;;;;5.64;67.34;97903.75;10383506;28;20170;-67
2021/12/01 19:49:13;;;;;;;5.95;2.00;;;;;;;5.60;67.41;97908.34;10383258;28;20045;-67
2021/12/01 19:54:16;;;;;;;3.65;1.60;;;;;;;5.61;66.84;97909.19;10376002;28;20089;-67
2021/12/01 19:59:18;;;;;;;4.93;1.95;;;;;;;5.53;66.93;97914.94;10382159;28;20124;-68
2021/12/01 20:04:20;;;;;;;5.35;2.20;;;;;;;5.69;66.73;97918.06;10388293;28;20053;-67
2021/12/01 20:09:24;;;;;;;17.23;8.52;;;;;;;5.71;66.68;97911.00;10382497;28;20053;-67
2021/12/01 20:14:26;;;;;;;42.42;23.63;;;;;;;5.63;66.80;97923.69;10387482;28;20050;-67
2021/12/01 20:19:28;;;;;;;5.63;2.08;;;;;;;5.51;67.04;97919.38;10386255;28;20046;-67
2021/12/01 20:24:33;;;;;;;5.40;1.73;;;;;;;5.65;66.65;97915.81;10387105;28;20063;-67
2021/12/01 20:29:36;;;;;;;6.45;1.73;;;;;;;5.70;66.82;97930.09;10388288;28;20069;-67
2021/12/01 20:34:38;;;;;;;3.85;1.60;;;;;;;5.86;66.37;97938.41;10387416;28;20050;-67
2021/12/01 20:39:47;;;;;;;4.45;1.77;;;;;;;5.83;66.23;97951.63;10389986;28;20053;-67
2021/12/01 20:44:51;;;;;;;4.18;1.98;;;;;;;5.87;66.34;97958.25;10385742;28;20058;-68
2021/12/01 20:55:25;;;;;;;6.27;2.00;;;;;;;6.00;66.37;97991.94;10390130;28;20055;-67
2021/12/01 21:05:40;;;;;;;;;;;;;;;5.95;66.67;98007.81;10384920;28;20056;-67
2021/12/01 21:10:56;;;;;;;6.75;1.92;;;;;;;6.35;65.89;98017.00;10383854;28;19921;-67
2021/12/01 21:15:58;;;;;;;3.10;1.63;;;;;;;6.35;65.42;98022.19;10381105;28;20149;-67
2021/12/01 21:21:00;;;;;;;5.00;1.73;;;;;;;6.07;65.61;98022.50;10387687;28;20363;-67
2021/12/01 21:26:04;;;;;;;9.27;2.42;;;;;;;6.05;66.50;98023.56;10382964;28;20489;-67
2021/12/01 21:31:11;;;;;;;6.93;2.53;;;;;;;6.05;66.69;98026.97;10378883;28;20130;-67
2021/12/01 21:36:23;;;;;;;6.18;3.28;;;;;;;5.99;67.23;98024.00;10386243;28;20050;-67
2021/12/01 21:41:26;;;;;;;7.63;2.20;;;;;;;6.13;66.98;98022.06;10388365;28;20049;-67
2021/12/01 21:46:28;;;;;;;8.27;2.40;;;;;;;6.03;67.07;98026.25;10387352;28;20403;-66
2021/12/01 21:51:30;;;;;;;4.90;2.40;;;;;;;5.76;68.13;98040.38;10384030;28;20410;-66
2021/12/01 21:56:33;;;;;;;5.25;1.90;;;;;;;5.74;67.89;98045.63;10387162;28;20049;-67
2021/12/01 22:01:36;;;;;;;3.70;1.80;;;;;;;5.72;67.89;98037.13;10386940;28;20060;-67
2021/12/01 22:06:41;;;;;;;5.63;1.70;;;;;;;5.51;68.18;98033.47;10387393;28;20291;-66
2021/12/01 22:11:43;;;;;;;3.33;1.38;;;;;;;5.51;68.18;98041.25;10383038;28;20041;-66
2021/12/01 22:16:48;;;;;;;3.08;1.35;;;;;;;5.48;68.47;98050.06;10386482;28;20072;-67
2021/12/01 22:21:53;;;;;;;4.50;1.50;;;;;;;5.50;68.08;98062.91;10386131;28;20057;-66
2021/12/01 22:26:56;;;;;;;5.75;1.65;;;;;;;5.45;68.14;98057.22;10384654;28;20398;-66
2021/12/01 22:32:01;;;;;;;5.65;1.70;;;;;;;5.47;67.99;98074.31;10385690;28;20058;-67
2021/12/01 22:37:02;;;;;;;4.68;1.73;;;;;;;5.40;67.40;98064.47;10385771;28;20485;-67
2021/12/01 22:42:04;;;;;;;9.65;1.83;;;;;;;5.22;67.33;98065.72;10385505;28;20557;-67
2021/12/01 22:47:09;;;;;;;7.82;2.00;;;;;;;5.33;68.03;98060.66;10379915;28;20075;-66
2021/12/01 22:52:11;;;;;;;6.93;2.13;;;;;;;5.35;67.62;98063.97;10384760;28;20636;-66
2021/12/01 22:57:13;;;;;;;4.57;1.60;;;;;;;5.20;67.71;98077.94;10383908;28;20085;-66
2021/12/01 23:02:15;;;;;;;9.18;1.70;;;;;;;5.10;67.65;98074.31;10385076;28;20130;-66
2021/12/01 23:07:20;;;;;;;5.63;2.20;;;;;;;4.92;68.10;98065.19;10384194;28;20061;-66
2021/12/01 23:12:22;;;;;;;6.07;1.52;;;;;;;4.88;68.09;98074.09;10384206;28;20136;-66
2021/12/01 23:17:24;;;;;;;7.38;1.60;;;;;;;4.86;68.07;98075.97;10384211;28;20142;-66
2021/12/01 23:22:26;;;;;;;4.85;1.45;;;;;;;4.92;67.94;98093.69;10382309;28;20050;-67
2021/12/01 23:27:31;;;;;;;3.55;1.30;;;;;;;5.03;67.76;98089.44;10385116;28;20421;-66
2021/12/01 23:33:04;;;;;;;6.93;1.60;;;;;;;5.11;67.97;98096.69;10384416;28;20052;-66
2021/12/01 23:38:07;;;;;;;3.92;1.33;;;;;;;5.33;67.64;98094.34;10388203;28;20500;-67
2021/12/01 23:43:12;;;;;;;11.60;6.85;;;;;;;5.08;68.25;98082.22;10393569;28;20533;-67
2021/12/01 23:53:22;;;;;;;5.95;2.22;;;;;;;4.89;69.15;98088.69;10391518;28;20073;-67
2021/12/01 23:58:25;;;;;;;6.25;1.70;;;;;;;4.93;68.79;98084.97;10391424;28;20475;-66
